createdAt,value
2023-03-17T00:01:27.615Z,97214.25
2023-03-17T00:06:35.244Z,97209.22
2023-03-17T00:11:38.418Z,97196.66
2023-03-17T00:16:44.165Z,97196.50
2023-03-17T00:21:49.326Z,97196.16
2023-03-17T00:26:53.361Z,97203.19
2023-03-17T00:31:58.897Z,97186.50
2023-03-17T00:37:04.292Z,97178.19
2023-03-17T00:42:07.887Z,97174.94
2023-03-17T00:47:13.139Z,97173.22
2023-03-17T00:52:17.957Z,97160.16
2023-03-17T00:57:21.195Z,97135.44
2023-03-17T01:02:24.795Z,97148.31
2023-03-17T01:07:30.534Z,97142.19
2023-03-17T01:12:33.947Z,97138.41
2023-03-17T01:17:38.148Z,97139.03
2023-03-17T01:22:43.044Z,97127.16
2023-03-17T01:27:48.013Z,97118.63
2023-03-17T01:32:51.559Z,97109.16
2023-03-17T01:37:57.254Z,97112.41
2023-03-17T01:43:05.685Z,97120.06
2023-03-17T01:48:09.237Z,97114.09
2023-03-17T01:53:14.449Z,97097.91
2023-03-17T01:58:19.388Z,97087.19
2023-03-17T02:03:24.090Z,97084.03
2023-03-17T02:08:28.760Z,97082.50
2023-03-17T02:13:32.968Z,97090.28
2023-03-17T02:18:36.158Z,97095.25
2023-03-17T02:23:41.489Z,97090.81
2023-03-17T02:28:46.317Z,97088.78
2023-03-17T02:33:49.690Z,97076.53
2023-03-17T02:38:54.997Z,97072.34
2023-03-17T02:43:58.400Z,97079.47
2023-03-17T02:49:02.704Z,97066.75
2023-03-17T02:54:07.341Z,97078.91
2023-03-17T02:59:11.233Z,97086.66
2023-03-17T03:04:14.411Z,97089.06
2023-03-17T03:09:19.071Z,97072.56
2023-03-17T03:14:22.186Z,97069.31
2023-03-17T03:19:25.425Z,97072.34
2023-03-17T03:24:30.167Z,97071.09
2023-03-17T03:29:33.570Z,97071.44
2023-03-17T03:34:36.748Z,97069.84
2023-03-17T03:39:41.538Z,97061.44
2023-03-17T03:44:44.818Z,97069.84
2023-03-17T03:49:48.144Z,97066.88
2023-03-17T03:54:52.770Z,97059.97
2023-03-17T03:59:56.276Z,97055.88
2023-03-17T04:04:59.529Z,97055.53
2023-03-17T04:10:04.983Z,97042.81
2023-03-17T04:15:11.286Z,97032.84
2023-03-17T04:20:16.534Z,97039.16
2023-03-17T04:25:22.442Z,97040.63
2023-03-17T04:30:26.475Z,97045.44
2023-03-17T04:35:29.799Z,97051.22
2023-03-17T04:40:34.386Z,97057.63
2023-03-17T04:45:37.786Z,97063.34
2023-03-17T04:50:42.444Z,97070.19
2023-03-17T04:55:47.253Z,97065.69
2023-03-17T05:00:50.880Z,97042.94
2023-03-17T05:05:55.020Z,97028.22
2023-03-17T05:11:01.565Z,97039.25
2023-03-17T05:16:06.520Z,97046.63
2023-03-17T05:21:11.142Z,97014.34
2023-03-17T05:26:16.732Z,96993.44
2023-03-17T05:31:20.378Z,96998.72
2023-03-17T05:36:24.559Z,97002.16
2023-03-17T05:41:29.598Z,96992.41
2023-03-17T05:46:32.861Z,96994.63
2023-03-17T05:51:37.043Z,97003.00
2023-03-17T05:56:43.009Z,96986.41
2023-03-17T06:01:46.522Z,97008.25
2023-03-17T06:06:49.967Z,97010.88
2023-03-17T06:11:54.571Z,97000.78
2023-03-17T06:16:58.066Z,96999.69
2023-03-17T06:22:01.285Z,97008.53
2023-03-17T06:27:06.170Z,96991.50
2023-03-17T06:32:20.307Z,96995.75
2023-03-17T06:37:24.396Z,97015.16
2023-03-17T06:42:29.121Z,97009.03
2023-03-17T06:47:32.438Z,97027.31
2023-03-17T06:52:36.083Z,97020.84
2023-03-17T06:57:40.653Z,97011.28
2023-03-17T07:02:44.273Z,97015.19
2023-03-17T07:07:47.472Z,97012.53
2023-03-17T07:12:52.256Z,96994.28
2023-03-17T07:17:56.009Z,96979.28
2023-03-17T07:22:59.646Z,96976.25
2023-03-17T07:28:04.855Z,96978.63
2023-03-17T07:33:08.421Z,96969.69
2023-03-17T07:38:12.027Z,96972.22
2023-03-17T07:43:17.782Z,96968.53
2023-03-17T07:48:21.330Z,96967.41
2023-03-17T07:53:25.291Z,96964.38
2023-03-17T07:58:30.081Z,96948.81
2023-03-17T08:03:34.093Z,96947.34
2023-03-17T08:08:38.232Z,96932.16
2023-03-17T08:13:42.774Z,96933.22
2023-03-17T08:18:45.980Z,96932.22
2023-03-17T08:23:49.812Z,96921.28
2023-03-17T08:28:54.445Z,96912.94
2023-03-17T08:33:57.922Z,96912.66
2023-03-17T08:39:01.208Z,96918.00
2023-03-17T08:44:05.883Z,96901.19
2023-03-17T08:49:09.693Z,96902.53
2023-03-17T08:54:14.143Z,96913.31
2023-03-17T08:59:19.003Z,96912.06
2023-03-17T09:04:23.480Z,96913.94
2023-03-17T09:09:26.730Z,96895.63
2023-03-17T09:14:40.077Z,96902.53
2023-03-17T09:19:46.020Z,96908.03
2023-03-17T09:24:49.369Z,96912.19
2023-03-17T09:29:54.183Z,96914.31
2023-03-17T09:34:57.690Z,96933.66
2023-03-17T09:40:01.207Z,96895.19
2023-03-17T09:45:21.160Z,96910.44
2023-03-17T09:50:28.431Z,96897.78
2023-03-17T09:55:34.206Z,96895.41
2023-03-17T10:00:39.633Z,96892.66
2023-03-17T10:05:42.835Z,96894.38
2023-03-17T10:10:49.522Z,96909.34
2023-03-17T10:15:59.414Z,96915.44
2023-03-17T10:21:06.054Z,96905.81
2023-03-17T10:26:22.181Z,96885.84
2023-03-17T10:31:33.202Z,96884.50
2023-03-17T10:36:39.153Z,96896.66
2023-03-17T10:41:55.610Z,96904.63
2023-03-17T10:47:00.837Z,96885.97
2023-03-17T10:52:08.902Z,96867.69
2023-03-17T10:57:15.486Z,96870.34
2023-03-17T11:02:25.290Z,96860.28
2023-03-17T11:07:31.518Z,96845.50
2023-03-17T11:12:40.174Z,96858.38
2023-03-17T11:17:53.148Z,96856.59
2023-03-17T11:23:04.858Z,96844.81
2023-03-17T11:28:20.355Z,96838.47
2023-03-17T11:33:36.656Z,96841.75
2023-03-17T11:38:50.036Z,96823.81
2023-03-17T11:44:09.239Z,96831.56
2023-03-17T11:49:19.121Z,96841.09
2023-03-17T11:54:29.901Z,96836.81
2023-03-17T11:59:39.835Z,96840.94
2023-03-17T12:04:53.200Z,96850.50
2023-03-17T12:10:05.173Z,96832.56
2023-03-17T12:15:16.863Z,96835.50
2023-03-17T12:20:31.155Z,96827.72
2023-03-17T12:25:37.193Z,96838.78
2023-03-17T12:30:51.322Z,96852.03
2023-03-17T12:35:56.088Z,96831.47
2023-03-17T12:41:21.408Z,96835.69
2023-03-17T12:46:45.675Z,96831.63
2023-03-17T12:52:05.532Z,96813.25
2023-03-17T12:57:16.080Z,96809.25
2023-03-17T13:02:32.151Z,96815.53
2023-03-17T13:07:42.361Z,96810.53
2023-03-17T13:13:12.058Z,96800.19
2023-03-17T13:18:50.421Z,96792.44
2023-03-17T13:24:38.842Z,96790.81
2023-03-17T13:29:48.769Z,96798.06
2023-03-17T13:34:53.939Z,96790.97
2023-03-17T13:40:17.574Z,96783.13
2023-03-17T13:45:37.340Z,96768.16
2023-03-17T13:50:41.394Z,96767.13
2023-03-17T13:56:09.774Z,96772.69
2023-03-17T14:01:15.359Z,96770.94
2023-03-17T14:06:21.180Z,96771.97
2023-03-17T14:11:29.893Z,96759.41
2023-03-17T14:16:36.972Z,96753.78
2023-03-17T14:21:40.855Z,96740.78
2023-03-17T14:26:45.671Z,96738.03
2023-03-17T14:31:51.039Z,96747.94
2023-03-17T14:36:54.370Z,96735.97
2023-03-17T14:42:05.002Z,96734.78
2023-03-17T14:47:16.101Z,96732.91
2023-03-17T14:52:21.920Z,96743.97
2023-03-17T14:57:32.755Z,96728.44
2023-03-17T15:02:38.093Z,96725.75
2023-03-17T15:07:43.454Z,96723.81
2023-03-17T15:12:49.364Z,96715.09
2023-03-17T15:17:55.750Z,96724.84
2023-03-17T15:23:01.888Z,96723.31
2023-03-17T15:28:12.696Z,96728.78
2023-03-17T15:33:23.016Z,96711.69
2023-03-17T15:38:26.761Z,96716.41
2023-03-17T15:43:31.820Z,96725.59
2023-03-17T15:48:37.486Z,96704.47
2023-03-17T15:53:40.691Z,96693.00
2023-03-17T15:58:45.444Z,96711.19
2023-03-17T16:03:49.866Z,96708.13
2023-03-17T16:08:53.259Z,96694.47
2023-03-17T16:13:59.770Z,96706.09
2023-03-17T16:19:04.793Z,96707.94
2023-03-17T16:24:10.424Z,96696.13
2023-03-17T16:29:16.554Z,96701.66
2023-03-17T16:34:21.709Z,96698.81
2023-03-17T16:39:26.575Z,96706.97
2023-03-17T16:44:31.943Z,96702.50
2023-03-17T16:49:35.654Z,96707.31
2023-03-17T16:54:42.407Z,96719.94
2023-03-17T16:59:47.489Z,96723.72
2023-03-17T17:04:51.254Z,96724.13
2023-03-17T17:09:55.252Z,96727.25
2023-03-17T17:14:59.938Z,96740.16
2023-03-17T17:20:04.744Z,96721.84
2023-03-17T17:25:10.145Z,96722.69
2023-03-17T17:30:16.947Z,96723.91
2023-03-17T17:35:20.602Z,96726.81
2023-03-17T17:40:25.916Z,96728.03
2023-03-17T17:45:30.748Z,96726.78
2023-03-17T17:50:34.234Z,96725.16
2023-03-17T17:55:37.909Z,96735.66
2023-03-17T18:00:44.613Z,96740.09
2023-03-17T18:05:47.989Z,96746.25
2023-03-17T18:10:52.261Z,96749.72
2023-03-17T18:15:57.154Z,96744.91
2023-03-17T18:21:00.293Z,96745.81
2023-03-17T18:26:06.048Z,96762.91
2023-03-17T18:31:14.483Z,96767.56
2023-03-17T18:36:18.948Z,96770.47
2023-03-17T18:41:22.337Z,96765.91
2023-03-17T18:46:26.816Z,96758.84
2023-03-17T18:51:30.074Z,96759.44
2023-03-17T18:56:33.653Z,96761.38
2023-03-17T19:01:38.397Z,96745.09
2023-03-17T19:06:42.980Z,96749.56
2023-03-17T19:11:46.409Z,96757.06
2023-03-17T19:16:51.311Z,96763.00
2023-03-17T19:21:54.899Z,96763.53
2023-03-17T19:26:58.296Z,96775.28
2023-03-17T19:32:02.915Z,96762.81
2023-03-17T19:37:06.063Z,96769.03
2023-03-17T19:42:09.465Z,96764.13
2023-03-17T19:47:13.999Z,96748.63
2023-03-17T19:52:17.240Z,96762.47
2023-03-17T19:57:20.992Z,96746.66
2023-03-17T20:02:25.757Z,96753.28
2023-03-17T20:07:29.097Z,96747.69
2023-03-17T20:12:32.900Z,96747.63
2023-03-17T20:17:37.754Z,96744.63
2023-03-17T20:22:43.594Z,96745.28
2023-03-17T20:27:47.008Z,96747.69
2023-03-17T20:32:51.611Z,96744.25
2023-03-17T20:37:57.069Z,96750.56
2023-03-17T20:43:00.243Z,96746.91
2023-03-17T20:48:06.731Z,96745.38
2023-03-17T20:53:11.713Z,96747.59
2023-03-17T20:58:14.805Z,96746.13
2023-03-17T21:03:20.988Z,96739.84
2023-03-17T21:08:25.084Z,96746.41
2023-03-17T21:13:28.634Z,96742.47
2023-03-17T21:18:33.254Z,96749.00
2023-03-17T21:23:38.814Z,96742.84
2023-03-17T21:28:43.531Z,96735.13
2023-03-17T21:33:50.547Z,96734.16
2023-03-17T21:38:54.318Z,96738.53
2023-03-17T21:43:58.036Z,96731.13
2023-03-17T21:49:02.672Z,96741.22
2023-03-17T21:54:06.428Z,96744.56
2023-03-17T21:59:11.053Z,96737.28
2023-03-17T22:04:15.619Z,96734.66
2023-03-17T22:09:19.462Z,96724.19
2023-03-17T22:14:23.023Z,96728.09
2023-03-17T22:19:28.890Z,96734.91
2023-03-17T22:24:32.474Z,96728.03
2023-03-17T22:29:35.804Z,96729.41
2023-03-17T22:34:40.498Z,96739.75
2023-03-17T22:39:43.926Z,96739.94
2023-03-17T22:44:47.404Z,96746.72
2023-03-17T22:49:52.790Z,96749.59
2023-03-17T22:54:56.330Z,96747.63
2023-03-17T22:59:59.552Z,96758.59
2023-03-17T23:05:04.448Z,96762.41
2023-03-17T23:10:09.174Z,96765.09
2023-03-17T23:15:13.426Z,96760.97
2023-03-17T23:20:19.114Z,96765.63
2023-03-17T23:25:22.862Z,96762.31
2023-03-17T23:30:26.674Z,96763.84
2023-03-17T23:35:31.746Z,96767.13
2023-03-17T23:40:35.222Z,96772.19
2023-03-17T23:45:38.977Z,96768.91
2023-03-17T23:50:44.176Z,96775.59
2023-03-17T23:55:47.461Z,96778.50
